sensor_id;sensor_type;location;lat;lon;timestamp;pressure;altitude;pressure_sealevel;temperature;humidity
80654;BME280;70020;45.524;10.240;2023-07-13T00:01:27;99754.38;;;32.61;49.49
80654;BME280;70020;45.524;10.240;2023-07-13T00:03:54;99748.41;;;32.96;50.41
80654;BME280;70020;45.524;10.240;2023-07-13T00:06:20;99747.63;;;33.00;47.94
80654;BME280;70020;45.524;10.240;2023-07-13T00:08:45;99733.25;;;33.16;47.74
80654;BME280;70020;45.524;10.240;2023-07-13T00:11:12;99747.97;;;33.09;48.41
80654;BME280;70020;45.524;10.240;2023-07-13T00:13:38;99760.53;;;32.61;49.26
80654;BME280;70020;45.524;10.240;2023-07-13T00:16:04;99765.03;;;32.98;49.25
80654;BME280;70020;45.524;10.240;2023-07-13T00:18:30;99751.91;;;32.96;48.10
80654;BME280;70020;45.524;10.240;2023-07-13T00:20:57;99761.50;;;32.87;48.87
80654;BME280;70020;45.524;10.240;2023-07-13T00:23:34;99766.69;;;33.04;49.41
80654;BME280;70020;45.524;10.240;2023-07-13T00:26:01;99762.06;;;32.94;48.75
80654;BME280;70020;45.524;10.240;2023-07-13T00:28:27;99767.16;;;32.90;47.93
80654;BME280;70020;45.524;10.240;2023-07-13T00:30:53;99779.09;;;33.15;47.39
80654;BME280;70020;45.524;10.240;2023-07-13T00:33:19;99778.06;;;33.26;47.40
80654;BME280;70020;45.524;10.240;2023-07-13T00:35:45;99793.59;;;33.19;48.09
80654;BME280;70020;45.524;10.240;2023-07-13T00:38:10;99788.31;;;33.39;47.04
80654;BME280;70020;45.524;10.240;2023-07-13T00:40:36;99797.16;;;33.29;46.62
80654;BME280;70020;45.524;10.240;2023-07-13T00:43:02;99799.69;;;33.56;45.97
80654;BME280;70020;45.524;10.240;2023-07-13T00:47:56;99790.47;;;33.42;46.53
80654;BME280;70020;45.524;10.240;2023-07-13T00:50:23;99803.22;;;33.67;46.28
80654;BME280;70020;45.524;10.240;2023-07-13T00:52:52;99806.13;;;33.65;46.02
80654;BME280;70020;45.524;10.240;2023-07-13T00:55:21;99810.22;;;33.83;44.70
80654;BME280;70020;45.524;10.240;2023-07-13T00:57:47;99813.72;;;33.98;44.47
80654;BME280;70020;45.524;10.240;2023-07-13T01:00:13;99821.25;;;34.01;44.45
80654;BME280;70020;45.524;10.240;2023-07-13T01:02:42;99828.84;;;34.19;44.70
80654;BME280;70020;45.524;10.240;2023-07-13T01:05:15;99822.38;;;34.15;44.96
80654;BME280;70020;45.524;10.240;2023-07-13T01:07:41;99818.38;;;34.43;43.60
80654;BME280;70020;45.524;10.240;2023-07-13T01:10:09;99833.69;;;34.22;44.56
80654;BME280;70020;45.524;10.240;2023-07-13T01:12:36;99837.72;;;34.25;43.82
80654;BME280;70020;45.524;10.240;2023-07-13T01:15:02;99831.84;;;34.58;43.71
80654;BME280;70020;45.524;10.240;2023-07-13T01:17:28;99832.34;;;34.35;43.87
80654;BME280;70020;45.524;10.240;2023-07-13T01:19:55;99829.91;;;34.34;43.56
80654;BME280;70020;45.524;10.240;2023-07-13T01:22:21;99825.94;;;34.61;43.79
80654;BME280;70020;45.524;10.240;2023-07-13T01:24:52;99835.03;;;34.85;43.70
80654;BME280;70020;45.524;10.240;2023-07-13T01:27:25;99842.81;;;34.92;42.44
80654;BME280;70020;45.524;10.240;2023-07-13T01:29:52;99846.59;;;34.81;43.29
80654;BME280;70020;45.524;10.240;2023-07-13T01:32:23;99837.22;;;34.63;43.36
80654;BME280;70020;45.524;10.240;2023-07-13T01:34:53;99847.94;;;34.78;42.33
80654;BME280;70020;45.524;10.240;2023-07-13T01:37:20;99853.59;;;34.77;43.25
80654;BME280;70020;45.524;10.240;2023-07-13T01:39:46;99853.59;;;34.92;42.78
80654;BME280;70020;45.524;10.240;2023-07-13T01:42:12;99867.03;;;34.97;42.03
80654;BME280;70020;45.524;10.240;2023-07-13T01:44:38;99867.81;;;35.08;42.75
80654;BME280;70020;45.524;10.240;2023-07-13T01:47:04;99861.31;;;35.24;41.40
80654;BME280;70020;45.524;10.240;2023-07-13T01:49:30;99863.34;;;35.67;41.39
80654;BME280;70020;45.524;10.240;2023-07-13T01:51:56;99869.03;;;35.66;40.17
80654;BME280;70020;45.524;10.240;2023-07-13T01:54:21;99869.81;;;35.66;40.65
80654;BME280;70020;45.524;10.240;2023-07-13T01:56:47;99865.34;;;35.31;41.54
80654;BME280;70020;45.524;10.240;2023-07-13T01:59:13;99873.97;;;35.28;41.32
80654;BME280;70020;45.524;10.240;2023-07-13T02:01:38;99884.44;;;35.40;41.55
80654;BME280;70020;45.524;10.240;2023-07-13T02:04:04;99885.47;;;35.59;41.29
80654;BME280;70020;45.524;10.240;2023-07-13T02:06:30;99882.53;;;35.56;41.31
80654;BME280;70020;45.524;10.240;2023-07-13T02:08:57;99879.56;;;35.47;41.56
80654;BME280;70020;45.524;10.240;2023-07-13T02:11:23;99871.31;;;34.93;42.83
80654;BME280;70020;45.524;10.240;2023-07-13T02:13:50;99872.16;;;34.63;43.51
80654;BME280;70020;45.524;10.240;2023-07-13T02:16:16;99868.66;;;34.58;42.36
80654;BME280;70020;45.524;10.240;2023-07-13T02:18:41;99877.25;;;34.80;42.96
80654;BME280;70020;45.524;10.240;2023-07-13T02:21:07;99870.78;;;34.51;43.48
80654;BME280;70020;45.524;10.240;2023-07-13T02:23:33;99869.13;;;34.19;43.28
80654;BME280;70020;45.524;10.240;2023-07-13T02:26:04;99877.72;;;34.27;44.00
80654;BME280;70020;45.524;10.240;2023-07-13T02:28:30;99878.31;;;34.44;42.71
80654;BME280;70020;45.524;10.240;2023-07-13T02:31:04;99888.50;;;34.37;42.97
80654;BME280;70020;45.524;10.240;2023-07-13T02:33:30;99887.69;;;34.36;43.08
80654;BME280;70020;45.524;10.240;2023-07-13T02:35:56;99891.25;;;34.87;43.22
80654;BME280;70020;45.524;10.240;2023-07-13T02:38:21;99896.59;;;35.17;41.52
80654;BME280;70020;45.524;10.240;2023-07-13T02:40:47;99915.97;;;34.89;41.81
80654;BME280;70020;45.524;10.240;2023-07-13T02:43:12;99912.16;;;35.40;42.12
80654;BME280;70020;45.524;10.240;2023-07-13T02:45:43;99912.16;;;35.40;41.93
80654;BME280;70020;45.524;10.240;2023-07-13T02:48:09;99911.53;;;35.69;42.03
80654;BME280;70020;45.524;10.240;2023-07-13T02:50:35;99915.56;;;35.71;41.57
80654;BME280;70020;45.524;10.240;2023-07-13T02:53:01;99914.66;;;36.06;40.92
80654;BME280;70020;45.524;10.240;2023-07-13T02:55:26;99918.72;;;35.93;41.07
80654;BME280;70020;45.524;10.240;2023-07-13T02:57:52;99921.56;;;35.38;41.32
80654;BME280;70020;45.524;10.240;2023-07-13T03:00:19;99921.34;;;35.29;41.02
80654;BME280;70020;45.524;10.240;2023-07-13T03:02:45;99922.09;;;35.55;41.84
80654;BME280;70020;45.524;10.240;2023-07-13T03:05:11;99915.03;;;35.74;41.37
80654;BME280;70020;45.524;10.240;2023-07-13T03:07:37;99919.94;;;35.57;41.44
80654;BME280;70020;45.524;10.240;2023-07-13T03:10:03;99914.06;;;35.40;40.14
80654;BME280;70020;45.524;10.240;2023-07-13T03:12:28;99919.97;;;35.47;40.78
80654;BME280;70020;45.524;10.240;2023-07-13T03:14:54;99904.66;;;35.27;41.73
80654;BME280;70020;45.524;10.240;2023-07-13T03:17:20;99900.56;;;35.55;41.14
80654;BME280;70020;45.524;10.240;2023-07-13T03:19:45;99895.28;;;35.05;41.55
80654;BME280;70020;45.524;10.240;2023-07-13T03:22:14;99891.78;;;34.84;41.41
80654;BME280;70020;45.524;10.240;2023-07-13T03:24:40;99897.66;;;35.21;41.64
80654;BME280;70020;45.524;10.240;2023-07-13T03:27:05;99896.84;;;36.10;40.29
80654;BME280;70020;45.524;10.240;2023-07-13T03:29:31;99900.75;;;35.69;40.89
80654;BME280;70020;45.524;10.240;2023-07-13T03:31:57;99903.47;;;35.69;40.77
80654;BME280;70020;45.524;10.240;2023-07-13T03:34:23;99912.56;;;35.83;40.62
80654;BME280;70020;45.524;10.240;2023-07-13T03:36:48;99905.81;;;35.85;40.45
80654;BME280;70020;45.524;10.240;2023-07-13T03:39:14;99915.03;;;35.74;40.17
80654;BME280;70020;45.524;10.240;2023-07-13T03:41:39;99903.72;;;35.72;40.65
80654;BME280;70020;45.524;10.240;2023-07-13T03:44:05;99903.84;;;36.11;39.90
80654;BME280;70020;45.524;10.240;2023-07-13T03:46:31;99901.78;;;35.83;39.52
80654;BME280;70020;45.524;10.240;2023-07-13T03:48:56;99903.13;;;35.85;39.45
80654;BME280;70020;45.524;10.240;2023-07-13T03:51:22;99895.81;;;36.01;39.58
80654;BME280;70020;45.524;10.240;2023-07-13T03:53:47;99893.66;;;35.93;39.63
80654;BME280;70020;45.524;10.240;2023-07-13T03:56:13;99888.47;;;36.06;39.20
80654;BME280;70020;45.524;10.240;2023-07-13T03:58:40;99888.78;;;36.49;39.54
80654;BME280;70020;45.524;10.240;2023-07-13T04:01:07;99901.97;;;36.50;38.81
80654;BME280;70020;45.524;10.240;2023-07-13T04:03:33;99901.28;;;36.30;39.69
80654;BME280;70020;45.524;10.240;2023-07-13T04:06:00;99904.25;;;36.28;39.72
80654;BME280;70020;45.524;10.240;2023-07-13T04:08:26;99902.75;;;36.56;39.24
80654;BME280;70020;45.524;10.240;2023-07-13T04:10:52;99893.84;;;36.89;38.45
80654;BME280;70020;45.524;10.240;2023-07-13T04:13:17;99897.22;;;37.05;38.06
80654;BME280;70020;45.524;10.240;2023-07-13T04:15:43;99897.84;;;37.20;38.04
80654;BME280;70020;45.524;10.240;2023-07-13T04:18:09;99897.03;;;36.96;38.58
80654;BME280;70020;45.524;10.240;2023-07-13T04:20:35;99907.13;;;36.80;37.66
80654;BME280;70020;45.524;10.240;2023-07-13T04:23:00;99910.75;;;37.00;38.07
80654;BME280;70020;45.524;10.240;2023-07-13T04:25:26;99916.44;;;37.27;37.91
80654;BME280;70020;45.524;10.240;2023-07-13T04:27:52;99919.31;;;37.59;37.96
80654;BME280;70020;45.524;10.240;2023-07-13T04:30:18;99918.69;;;37.67;36.89
80654;BME280;70020;45.524;10.240;2023-07-13T04:32:44;99921.38;;;37.91;36.57
80654;BME280;70020;45.524;10.240;2023-07-13T04:35:09;99926.06;;;37.85;36.27
80654;BME280;70020;45.524;10.240;2023-07-13T04:37:35;99930.03;;;37.93;36.10
80654;BME280;70020;45.524;10.240;2023-07-13T04:40:01;99925.00;;;38.24;36.21
80654;BME280;70020;45.524;10.240;2023-07-13T04:42:28;99928.03;;;37.98;36.50
80654;BME280;70020;45.524;10.240;2023-07-13T04:44:54;99937.03;;;38.12;35.58
80654;BME280;70020;45.524;10.240;2023-07-13T04:47:19;99940.50;;;38.37;36.07
80654;BME280;70020;45.524;10.240;2023-07-13T04:49:45;99943.09;;;38.04;36.10
80654;BME280;70020;45.524;10.240;2023-07-13T04:52:11;99946.38;;;38.20;36.31
80654;BME280;70020;45.524;10.240;2023-07-13T04:54:36;99929.16;;;38.16;35.71
80654;BME280;70020;45.524;10.240;2023-07-13T04:57:02;99937.19;;;38.58;35.56
80654;BME280;70020;45.524;10.240;2023-07-13T04:59:28;99939.25;;;38.66;35.55
80654;BME280;70020;45.524;10.240;2023-07-13T05:01:54;99930.84;;;39.00;35.42
80654;BME280;70020;45.524;10.240;2023-07-13T05:04:19;99931.88;;;38.72;35.81
80654;BME280;70020;45.524;10.240;2023-07-13T05:06:45;99921.06;;;38.86;35.89
80654;BME280;70020;45.524;10.240;2023-07-13T05:09:11;99913.75;;;38.54;35.72
80654;BME280;70020;45.524;10.240;2023-07-13T05:11:37;99911.88;;;38.36;35.04
80654;BME280;70020;45.524;10.240;2023-07-13T05:14:03;99909.41;;;38.53;36.32
80654;BME280;70020;45.524;10.240;2023-07-13T05:16:29;99917.38;;;38.63;36.28
80654;BME280;70020;45.524;10.240;2023-07-13T05:18:54;99911.06;;;38.86;35.76
80654;BME280;70020;45.524;10.240;2023-07-13T05:21:20;99912.22;;;39.12;35.44
80654;BME280;70020;45.524;10.240;2023-07-13T05:23:45;99920.41;;;39.07;35.84
80654;BME280;70020;45.524;10.240;2023-07-13T05:26:11;99919.91;;;39.05;35.37
80654;BME280;70020;45.524;10.240;2023-07-13T05:28:37;99924.91;;;39.30;34.06
80654;BME280;70020;45.524;10.240;2023-07-13T05:31:02;99927.09;;;39.28;34.22
80654;BME280;70020;45.524;10.240;2023-07-13T05:33:28;99940.03;;;39.31;34.86
80654;BME280;70020;45.524;10.240;2023-07-13T05:35:54;99944.50;;;39.68;34.34
80654;BME280;70020;45.524;10.240;2023-07-13T05:38:19;99950.81;;;39.64;34.54
80654;BME280;70020;45.524;10.240;2023-07-13T05:40:45;99946.56;;;39.58;35.30
80654;BME280;70020;45.524;10.240;2023-07-13T05:43:12;99943.47;;;39.51;34.64
80654;BME280;70020;45.524;10.240;2023-07-13T05:45:38;99936.16;;;39.51;34.56
80654;BME280;70020;45.524;10.240;2023-07-13T05:48:04;99930.63;;;39.56;34.29
80654;BME280;70020;45.524;10.240;2023-07-13T05:50:29;99929.94;;;39.91;33.79
80654;BME280;70020;45.524;10.240;2023-07-13T05:52:55;99921.81;;;39.78;33.15
80654;BME280;70020;45.524;10.240;2023-07-13T05:55:21;99926.50;;;39.86;33.27
80654;BME280;70020;45.524;10.240;2023-07-13T05:57:47;99934.06;;;39.62;33.89
80654;BME280;70020;45.524;10.240;2023-07-13T06:00:13;99941.97;;;40.35;33.49
80654;BME280;70020;45.524;10.240;2023-07-13T06:02:39;99940.66;;;39.83;33.97
80654;BME280;70020;45.524;10.240;2023-07-13T06:05:04;99934.75;;;39.67;34.51
80654;BME280;70020;45.524;10.240;2023-07-13T06:07:30;99922.19;;;39.58;34.13
80654;BME280;70020;45.524;10.240;2023-07-13T06:09:55;99926.41;;;39.36;34.89
80654;BME280;70020;45.524;10.240;2023-07-13T06:12:21;99935.94;;;39.20;35.44
80654;BME280;70020;45.524;10.240;2023-07-13T06:14:47;99927.22;;;39.23;34.51
80654;BME280;70020;45.524;10.240;2023-07-13T06:17:12;99924.88;;;39.17;35.83
80654;BME280;70020;45.524;10.240;2023-07-13T06:19:38;99928.31;;;39.22;35.11
80654;BME280;70020;45.524;10.240;2023-07-13T06:22:04;99938.53;;;39.25;34.65
80654;BME280;70020;45.524;10.240;2023-07-13T06:24:29;99946.41;;;39.08;34.37
80654;BME280;70020;45.524;10.240;2023-07-13T06:26:55;99952.56;;;38.95;35.53
80654;BME280;70020;45.524;10.240;2023-07-13T06:29:21;99958.38;;;38.70;36.64
80654;BME280;70020;45.524;10.240;2023-07-13T06:31:46;99967.03;;;38.72;36.73
80654;BME280;70020;45.524;10.240;2023-07-13T06:34:12;99972.63;;;38.94;35.95
80654;BME280;70020;45.524;10.240;2023-07-13T06:36:38;99970.53;;;39.05;34.88
80654;BME280;70020;45.524;10.240;2023-07-13T06:39:03;99973.25;;;39.05;35.20
80654;BME280;70020;45.524;10.240;2023-07-13T06:41:29;99971.50;;;39.14;34.65
80654;BME280;70020;45.524;10.240;2023-07-13T06:43:55;99992.59;;;38.24;34.62
80654;BME280;70020;45.524;10.240;2023-07-13T06:46:22;99992.84;;;38.03;35.02
80654;BME280;70020;45.524;10.240;2023-07-13T06:48:48;100001.28;;;38.21;34.08
80654;BME280;70020;45.524;10.240;2023-07-13T06:51:14;99991.34;;;38.16;33.18
80654;BME280;70020;45.524;10.240;2023-07-13T06:53:39;99983.50;;;38.57;33.15
80654;BME280;70020;45.524;10.240;2023-07-13T06:56:05;99982.75;;;38.70;34.06
80654;BME280;70020;45.524;10.240;2023-07-13T06:58:30;99980.34;;;38.07;31.74
80654;BME280;70020;45.524;10.240;2023-07-13T07:00:56;99985.25;;;38.05;32.65
80654;BME280;70020;45.524;10.240;2023-07-13T07:03:21;99980.97;;;38.23;32.27
80654;BME280;70020;45.524;10.240;2023-07-13T07:05:47;99983.50;;;38.75;32.02
80654;BME280;70020;45.524;10.240;2023-07-13T07:08:13;99987.16;;;38.29;30.92
80654;BME280;70020;45.524;10.240;2023-07-13T07:10:39;99999.41;;;38.96;32.58
80654;BME280;70020;45.524;10.240;2023-07-13T07:13:05;100002.25;;;39.36;33.50
80654;BME280;70020;45.524;10.240;2023-07-13T07:15:31;99989.78;;;39.35;30.43
80654;BME280;70020;45.524;10.240;2023-07-13T07:17:56;99988.47;;;40.06;30.67
80654;BME280;70020;45.524;10.240;2023-07-13T07:20:22;99984.97;;;40.77;32.09
80654;BME280;70020;45.524;10.240;2023-07-13T07:22:47;99978.75;;;40.99;30.82
80654;BME280;70020;45.524;10.240;2023-07-13T07:25:13;99973.16;;;41.26;29.70
80654;BME280;70020;45.524;10.240;2023-07-13T07:27:38;99970.44;;;40.95;28.79
80654;BME280;70020;45.524;10.240;2023-07-13T07:30:04;99968.78;;;40.50;30.02
80654;BME280;70020;45.524;10.240;2023-07-13T07:32:30;99963.25;;;40.55;29.71
80654;BME280;70020;45.524;10.240;2023-07-13T07:34:57;99955.28;;;40.58;26.51
80654;BME280;70020;45.524;10.240;2023-07-13T07:37:22;99966.00;;;40.41;28.86
80654;BME280;70020;45.524;10.240;2023-07-13T07:39:48;99968.66;;;40.91;29.61
80654;BME280;70020;45.524;10.240;2023-07-13T07:42:14;99979.09;;;40.61;29.54
80654;BME280;70020;45.524;10.240;2023-07-13T07:44:40;99989.72;;;40.71;30.31
80654;BME280;70020;45.524;10.240;2023-07-13T07:47:06;99996.00;;;40.81;30.23
80654;BME280;70020;45.524;10.240;2023-07-13T07:49:32;99994.53;;;40.74;30.36
80654;BME280;70020;45.524;10.240;2023-07-13T07:51:57;99999.41;;;40.64;30.30
80654;BME280;70020;45.524;10.240;2023-07-13T07:54:23;99978.00;;;40.62;29.71
80654;BME280;70020;45.524;10.240;2023-07-13T07:56:49;99976.28;;;40.66;29.39
80654;BME280;70020;45.524;10.240;2023-07-13T07:59:14;99971.50;;;40.86;29.59
80654;BME280;70020;45.524;10.240;2023-07-13T08:01:40;99973.00;;;40.78;29.27
80654;BME280;70020;45.524;10.240;2023-07-13T08:04:05;99967.88;;;40.54;30.74
80654;BME280;70020;45.524;10.240;2023-07-13T08:06:32;99964.97;;;40.73;30.68
80654;BME280;70020;45.524;10.240;2023-07-13T08:08:58;99974.19;;;40.86;29.75
80654;BME280;70020;45.524;10.240;2023-07-13T08:11:24;99969.75;;;40.90;29.48
80654;BME280;70020;45.524;10.240;2023-07-13T08:13:50;99975.28;;;40.85;29.26
80654;BME280;70020;45.524;10.240;2023-07-13T08:16:16;99974.84;;;41.35;29.56
80654;BME280;70020;45.524;10.240;2023-07-13T08:18:41;99968.44;;;41.31;29.47
80654;BME280;70020;45.524;10.240;2023-07-13T08:21:11;99961.13;;;41.18;28.17
80654;BME280;70020;45.524;10.240;2023-07-13T08:23:37;99958.25;;;41.46;27.97
80654;BME280;70020;45.524;10.240;2023-07-13T08:26:02;99961.34;;;41.61;29.54
80654;BME280;70020;45.524;10.240;2023-07-13T08:28:29;99970.16;;;41.27;29.68
80654;BME280;70020;45.524;10.240;2023-07-13T08:30:54;99967.63;;;41.31;28.72
80654;BME280;70020;45.524;10.240;2023-07-13T08:33:20;99963.53;;;41.51;28.06
80654;BME280;70020;45.524;10.240;2023-07-13T08:35:46;99956.13;;;41.73;27.88
80654;BME280;70020;45.524;10.240;2023-07-13T08:38:13;99949.94;;;41.98;27.82
80654;BME280;70020;45.524;10.240;2023-07-13T08:40:38;99939.28;;;42.36;27.57
80654;BME280;70020;45.524;10.240;2023-07-13T08:43:04;99937.44;;;41.72;26.99
80654;BME280;70020;45.524;10.240;2023-07-13T08:45:33;99941.59;;;41.69;26.02
80654;BME280;70020;45.524;10.240;2023-07-13T08:48:13;99952.66;;;41.81;28.09
80654;BME280;70020;45.524;10.240;2023-07-13T08:50:52;99977.09;;;41.73;26.96
80654;BME280;70020;45.524;10.240;2023-07-13T08:53:19;99993.19;;;42.17;27.58
80654;BME280;70020;45.524;10.240;2023-07-13T08:55:45;99989.72;;;42.42;27.40
80654;BME280;70020;45.524;10.240;2023-07-13T08:58:15;99978.16;;;42.20;27.79
80654;BME280;70020;45.524;10.240;2023-07-13T09:00:43;99984.91;;;42.31;28.16
80654;BME280;70020;45.524;10.240;2023-07-13T09:03:12;99987.00;;;42.68;27.67
80654;BME280;70020;45.524;10.240;2023-07-13T09:05:41;99985.25;;;42.89;27.19
80654;BME280;70020;45.524;10.240;2023-07-13T09:10:45;99992.44;;;42.94;27.45
80654;BME280;70020;45.524;10.240;2023-07-13T09:15:55;99984.91;;;42.99;27.52
80654;BME280;70020;45.524;10.240;2023-07-13T09:18:28;99988.28;;;42.96;27.11
80654;BME280;70020;45.524;10.240;2023-07-13T09:23:21;99999.09;;;43.30;27.44
80654;BME280;70020;45.524;10.240;2023-07-13T09:25:48;100005.66;;;43.47;26.75
80654;BME280;70020;45.524;10.240;2023-07-13T09:28:19;100003.91;;;43.42;27.67
80654;BME280;70020;45.524;10.240;2023-07-13T09:30:52;99997.81;;;43.28;27.50
80654;BME280;70020;45.524;10.240;2023-07-13T09:33:20;99996.72;;;43.29;26.95
80654;BME280;70020;45.524;10.240;2023-07-13T09:35:46;99991.44;;;43.07;27.39
80654;BME280;70020;45.524;10.240;2023-07-13T09:38:15;100000.13;;;43.00;27.86
80654;BME280;70020;45.524;10.240;2023-07-13T09:43:14;100004.75;;;43.00;28.51
80654;BME280;70020;45.524;10.240;2023-07-13T09:45:40;100001.69;;;43.10;27.22
80654;BME280;70020;45.524;10.240;2023-07-13T09:48:10;100011.78;;;43.18;27.69
80654;BME280;70020;45.524;10.240;2023-07-13T09:50:38;100010.16;;;43.34;27.23
80654;BME280;70020;45.524;10.240;2023-07-13T09:53:04;100010.06;;;43.68;26.86
80654;BME280;70020;45.524;10.240;2023-07-13T09:55:37;100010.88;;;43.98;26.42
80654;BME280;70020;45.524;10.240;2023-07-13T09:58:25;100008.25;;;44.02;26.26
80654;BME280;70020;45.524;10.240;2023-07-13T10:01:02;100005.78;;;44.38;25.77
80654;BME280;70020;45.524;10.240;2023-07-13T10:03:54;100013.69;;;44.60;25.66
80654;BME280;70020;45.524;10.240;2023-07-13T10:06:20;100016.13;;;44.74;25.42
80654;BME280;70020;45.524;10.240;2023-07-13T10:08:51;100016.84;;;44.83;25.09
80654;BME280;70020;45.524;10.240;2023-07-13T10:11:18;100022.16;;;44.46;26.03
80654;BME280;70020;45.524;10.240;2023-07-13T10:13:46;100025.44;;;43.64;25.52
80654;BME280;70020;45.524;10.240;2023-07-13T10:16:14;100034.75;;;43.63;26.27
80654;BME280;70020;45.524;10.240;2023-07-13T10:18:50;100030.31;;;43.88;26.38
80654;BME280;70020;45.524;10.240;2023-07-13T10:21:18;100032.28;;;44.17;25.95
80654;BME280;70020;45.524;10.240;2023-07-13T10:23:45;100028.25;;;44.23;24.77
80654;BME280;70020;45.524;10.240;2023-07-13T10:26:14;100029.81;;;44.53;24.82
80654;BME280;70020;45.524;10.240;2023-07-13T10:28:41;100030.72;;;44.98;24.58
80654;BME280;70020;45.524;10.240;2023-07-13T10:31:11;100024.59;;;45.13;24.03
80654;BME280;70020;45.524;10.240;2023-07-13T10:33:37;100017.28;;;44.52;23.86
80654;BME280;70020;45.524;10.240;2023-07-13T10:36:48;100008.75;;;44.74;24.41
80654;BME280;70020;45.524;10.240;2023-07-13T10:38:49;100005.09;;;44.82;24.48
80654;BME280;70020;45.524;10.240;2023-07-13T10:41:17;100005.00;;;45.11;23.99
80654;BME280;70020;45.524;10.240;2023-07-13T10:43:45;100003.03;;;45.45;24.60
80654;BME280;70020;45.524;10.240;2023-07-13T10:46:13;99988.38;;;45.85;23.88
80654;BME280;70020;45.524;10.240;2023-07-13T10:48:40;99987.31;;;45.42;23.48
80654;BME280;70020;45.524;10.240;2023-07-13T10:51:06;99990.72;;;45.27;23.15
80654;BME280;70020;45.524;10.240;2023-07-13T10:53:34;99980.50;;;45.96;22.75
80654;BME280;70020;45.524;10.240;2023-07-13T10:56:08;99976.59;;;46.21;23.42
80654;BME280;70020;45.524;10.240;2023-07-13T10:58:44;99972.25;;;45.23;22.93
80654;BME280;70020;45.524;10.240;2023-07-13T11:01:17;99968.88;;;45.06;23.19
80654;BME280;70020;45.524;10.240;2023-07-13T11:06:13;99956.81;;;45.64;22.18
80654;BME280;70020;45.524;10.240;2023-07-13T11:11:54;99956.00;;;46.00;23.78
80654;BME280;70020;45.524;10.240;2023-07-13T11:14:02;99945.03;;;45.87;22.71
80654;BME280;70020;45.524;10.240;2023-07-13T11:16:43;99951.00;;;44.96;24.18
80654;BME280;70020;45.524;10.240;2023-07-13T11:22:15;99935.47;;;45.33;23.62
80654;BME280;70020;45.524;10.240;2023-07-13T11:28:03;99938.03;;;45.62;22.88
80654;BME280;70020;45.524;10.240;2023-07-13T11:32:33;99931.38;;;46.39;22.39
80654;BME280;70020;45.524;10.240;2023-07-13T11:35:00;99926.97;;;46.50;22.17
80654;BME280;70020;45.524;10.240;2023-07-13T11:37:26;99918.97;;;46.18;21.18
80654;BME280;70020;45.524;10.240;2023-07-13T11:39:53;99914.72;;;45.56;21.24
80654;BME280;70020;45.524;10.240;2023-07-13T11:42:20;99914.34;;;45.94;22.31
80654;BME280;70020;45.524;10.240;2023-07-13T11:44:47;99913.63;;;45.69;22.30
80654;BME280;70020;45.524;10.240;2023-07-13T11:47:22;99913.13;;;45.79;22.67
80654;BME280;70020;45.524;10.240;2023-07-13T11:49:54;99901.84;;;46.33;23.20
80654;BME280;70020;45.524;10.240;2023-07-13T11:52:42;99903.47;;;46.77;22.05
80654;BME280;70020;45.524;10.240;2023-07-13T11:55:13;99910.19;;;46.52;21.29
80654;BME280;70020;45.524;10.240;2023-07-13T11:57:41;99903.31;;;46.30;21.54
80654;BME280;70020;45.524;10.240;2023-07-13T12:00:14;99906.81;;;45.91;22.42
80654;BME280;70020;45.524;10.240;2023-07-13T12:02:45;99907.56;;;45.64;22.16
80654;BME280;70020;45.524;10.240;2023-07-13T12:05:11;99907.31;;;45.57;22.94
80654;BME280;70020;45.524;10.240;2023-07-13T12:07:38;99903.53;;;45.13;22.16
80654;BME280;70020;45.524;10.240;2023-07-13T12:10:17;99896.53;;;45.24;22.41
80654;BME280;70020;45.524;10.240;2023-07-13T12:12:53;99891.97;;;45.28;22.24
80654;BME280;70020;45.524;10.240;2023-07-13T12:15:19;99891.16;;;45.40;22.50
80654;BME280;70020;45.524;10.240;2023-07-13T12:17:45;99889.69;;;45.30;22.34
80654;BME280;70020;45.524;10.240;2023-07-13T12:20:17;99883.06;;;45.67;22.41
80654;BME280;70020;45.524;10.240;2023-07-13T12:22:47;99887.38;;;45.08;22.77
80654;BME280;70020;45.524;10.240;2023-07-13T12:25:13;99884.00;;;45.23;22.70
80654;BME280;70020;45.524;10.240;2023-07-13T12:27:40;99886.72;;;45.59;22.32
80654;BME280;70020;45.524;10.240;2023-07-13T12:30:21;99887.63;;;45.63;22.57
80654;BME280;70020;45.524;10.240;2023-07-13T12:35:47;99889.22;;;45.76;21.33
80654;BME280;70020;45.524;10.240;2023-07-13T12:38:13;99891.16;;;45.76;21.54
80654;BME280;70020;45.524;10.240;2023-07-13T12:40:39;99889.66;;;45.54;21.49
80654;BME280;70020;45.524;10.240;2023-07-13T12:43:09;99874.94;;;45.83;22.10
80654;BME280;70020;45.524;10.240;2023-07-13T12:45:36;99874.22;;;46.38;22.61
80654;BME280;70020;45.524;10.240;2023-07-13T12:48:06;99872.72;;;45.88;21.39
80654;BME280;70020;45.524;10.240;2023-07-13T12:50:41;99866.81;;;45.99;21.94
80654;BME280;70020;45.524;10.240;2023-07-13T12:53:14;99870.44;;;46.42;20.96
80654;BME280;70020;45.524;10.240;2023-07-13T12:55:45;99868.56;;;46.62;20.69
80654;BME280;70020;45.524;10.240;2023-07-13T12:58:32;99870.56;;;46.93;20.73
80654;BME280;70020;45.524;10.240;2023-07-13T13:01:01;99883.47;;;46.33;20.70
80654;BME280;70020;45.524;10.240;2023-07-13T13:04:01;99891.41;;;46.11;20.35
80654;BME280;70020;45.524;10.240;2023-07-13T13:06:27;99904.72;;;46.52;21.17
80654;BME280;70020;45.524;10.240;2023-07-13T13:08:54;99905.78;;;46.63;20.93
80654;BME280;70020;45.524;10.240;2023-07-13T13:11:21;99896.78;;;46.63;21.58
80654;BME280;70020;45.524;10.240;2023-07-13T13:13:48;99906.22;;;46.65;22.52
80654;BME280;70020;45.524;10.240;2023-07-13T13:18:40;99919.84;;;46.62;21.55
80654;BME280;70020;45.524;10.240;2023-07-13T13:21:06;99929.72;;;46.94;20.54
80654;BME280;70020;45.524;10.240;2023-07-13T13:23:32;99921.00;;;47.19;20.56